Time;durP1;ratioP1;P1;durP2;ratioP2;P2;SDS_P1;SDS_P2;PMS_P1;PMS_P2;Temp;Humidity;BMP_temperature;BMP_pressure;BME280_temperature;BME280_humidity;BME280_pressure;Samples;Min_cycle;Max_cycle;Signal;HPM_P1;HPM_P2
2023/04/05 00:01:30;;;;;;;11.97;5.23;;;2.40;99.90;;;;;;5091955;28;20020;-48
2023/04/05 00:03:57;;;;;;;11.90;5.17;;;2.30;99.90;;;;;;5091743;28;20035;-49
2023/04/05 00:06:30;;;;;;;13.60;5.70;;;2.30;99.90;;;;;;5091586;28;20028;-48
2023/04/05 00:09:02;;;;;;;11.93;4.63;;;2.30;99.90;;;;;;5091829;28;20024;-48
2023/04/05 00:11:30;;;;;;;10.40;5.13;;;2.20;99.90;;;;;;5090422;28;20043;-48
2023/04/05 00:13:58;;;;;;;11.10;5.20;;;2.10;99.90;;;;;;5091670;28;20047;-50
2023/04/05 00:16:26;;;;;;;11.67;5.27;;;2.10;99.90;;;;;;5091639;28;20442;-48
2023/04/05 00:18:53;;;;;;;9.37;4.53;;;2.10;99.90;;;;;;5090626;28;20325;-48
2023/04/05 00:21:22;;;;;;;12.60;5.07;;;2.10;99.90;;;;;;5090221;28;20434;-48
2023/04/05 00:23:53;;;;;;;11.50;5.55;;;2.10;99.90;;;;;;5091429;28;20028;-48
2023/04/05 00:26:20;;;;;;;15.73;5.50;;;2.10;99.90;;;;;;5091545;28;20032;-50
2023/04/05 00:28:50;;;;;;;10.80;4.80;;;2.10;99.90;;;;;;5090156;28;20039;-51
2023/04/05 00:31:16;;;;;;;11.90;5.17;;;2.10;99.90;;;;;;5091296;28;20043;-48
2023/04/05 00:33:43;;;;;;;10.63;4.70;;;2.10;99.90;;;;;;5091139;28;20036;-51
2023/04/05 00:36:16;;;;;;;11.70;4.90;;;2.20;99.90;;;;;;5091550;28;20042;-49
2023/04/05 00:38:43;;;;;;;11.50;4.80;;;2.20;99.90;;;;;;5089738;28;20040;-49
2023/04/05 00:41:10;;;;;;;12.17;5.17;;;2.20;99.90;;;;;;5091287;28;20560;-48
2023/04/05 00:43:36;;;;;;;12.17;5.57;;;2.20;99.90;;;;;;5091029;28;20028;-50
2023/04/05 00:46:02;;;;;;;13.00;6.20;;;2.20;99.90;;;;;;5089921;28;20039;-50
2023/04/05 00:48:28;;;;;;;12.10;5.50;;;2.20;99.90;;;;;;5089563;28;20407;-48
2023/04/05 00:50:54;;;;;;;14.30;5.93;;;2.20;99.90;;;;;;5090937;28;20035;-51
2023/04/05 00:53:20;;;;;;;12.80;5.90;;;2.20;99.90;;;;;;5089598;28;20028;-51
2023/04/05 00:55:47;;;;;;;11.40;5.63;;;2.20;99.90;;;;;;5089859;28;20484;-50
2023/04/05 00:58:18;;;;;;;15.07;6.47;;;2.20;99.90;;;;;;5091180;28;20461;-49
2023/04/05 01:00:55;;;;;;;10.67;5.37;;;2.20;99.90;;;;;;5090960;28;20145;-49
2023/04/05 01:03:24;;;;;;;11.80;5.40;;;2.20;99.90;;;;;;5089404;28;20369;-50
2023/04/05 01:06:03;;;;;;;11.50;4.77;;;2.20;99.90;;;;;;5091078;28;20357;-49
2023/04/05 01:08:39;;;;;;;11.43;5.30;;;2.20;99.90;;;;;;5089502;28;20032;-51
2023/04/05 01:11:07;;;;;;;13.90;5.40;;;2.20;99.90;;;;;;5089268;28;20127;-50
2023/04/05 01:13:32;;;;;;;13.90;6.67;;;2.10;99.90;;;;;;5090576;28;20028;-52
2023/04/05 01:15:58;;;;;;;10.37;5.00;;;2.20;99.90;;;;;;5090682;28;20042;-50
2023/04/05 01:18:26;;;;;;;10.27;5.40;;;2.20;99.90;;;;;;5090397;28;20028;-49
2023/04/05 01:21:22;;;;;;;13.37;5.63;;;2.20;99.90;;;;;;5089360;28;20028;-50
2023/04/05 01:24:11;;;;;;;14.60;5.53;;;2.20;99.90;;;;;;5081035;28;20036;-52
2023/04/05 01:26:56;;;;;;;13.20;5.73;;;2.20;99.90;;;;;;5090526;28;20111;-57
2023/04/05 01:29:53;;;;;;;11.37;5.57;;;2.10;99.90;;;;;;5090267;28;20034;-54
2023/04/05 01:32:29;;;;;;;12.37;5.63;;;2.10;99.90;;;;;;5090555;28;20024;-47
2023/04/05 01:35:17;;;;;;;11.83;5.30;;;2.10;99.90;;;;;;5105937;28;20028;-49
2023/04/05 01:37:47;;;;;;;15.70;5.60;;;2.10;99.90;;;;;;5089076;28;20028;-47
2023/04/05 01:40:13;;;;;;;14.37;5.97;;;2.10;99.90;;;;;;5090310;28;20028;-48
2023/04/05 01:42:39;;;;;;;15.60;5.93;;;2.00;99.90;;;;;;5090562;28;20108;-49
2023/04/05 01:45:07;;;;;;;15.53;5.67;;;2.00;99.90;;;;;;5090439;28;20025;-48
2023/04/05 01:47:33;;;;;;;13.33;5.80;;;2.00;99.90;;;;;;5088836;28;20043;-49
2023/04/05 01:49:59;;;;;;;12.63;6.03;;;2.00;99.90;;;;;;5088913;28;20036;-50
2023/04/05 01:52:25;;;;;;;12.00;6.80;;;2.00;99.90;;;;;;5089141;28;20181;-48
2023/04/05 01:54:51;;;;;;;11.83;5.47;;;2.00;99.90;;;;;;5090011;28;20056;-48
2023/04/05 01:57:17;;;;;;;13.33;5.40;;;2.00;99.90;;;;;;5088985;28;20054;-51
2023/04/05 01:59:42;;;;;;;12.20;6.57;;;2.00;99.90;;;;;;5089001;28;20029;-48
2023/04/05 02:02:09;;;;;;;12.47;5.97;;;1.90;99.90;;;;;;5090557;28;20030;-53
2023/04/05 02:04:35;;;;;;;14.03;5.97;;;1.90;99.90;;;;;;5090173;28;20096;-52
2023/04/05 02:07:02;;;;;;;10.33;5.30;;;1.90;99.90;;;;;;5090190;28;20298;-51
2023/04/05 02:09:28;;;;;;;12.37;5.73;;;1.80;99.90;;;;;;5089140;28;20024;-48
2023/04/05 02:11:55;;;;;;;14.90;6.57;;;1.80;99.90;;;;;;5088737;28;20032;-50
2023/04/05 02:14:21;;;;;;;12.57;5.90;;;1.80;99.90;;;;;;5090011;28;20028;-47
2023/04/05 02:16:46;;;;;;;16.73;6.27;;;1.80;99.90;;;;;;5090252;28;20081;-51
2023/04/05 02:19:14;;;;;;;15.07;6.73;;;1.70;99.90;;;;;;5088950;28;20115;-55
2023/04/05 02:21:40;;;;;;;13.80;6.13;;;1.70;99.90;;;;;;5088749;28;20028;-51
2023/04/05 02:24:06;;;;;;;15.03;5.77;;;1.60;99.90;;;;;;5090103;28;20020;-50
2023/04/05 02:26:32;;;;;;;13.93;6.40;;;1.70;99.90;;;;;;5089976;28;20035;-50
2023/04/05 02:28:58;;;;;;;12.97;6.03;;;1.70;99.90;;;;;;5089975;28;20508;-53
2023/04/05 02:31:24;;;;;;;15.63;6.67;;;1.70;99.90;;;;;;5090318;28;20104;-50
2023/04/05 02:33:50;;;;;;;15.20;6.70;;;1.60;99.90;;;;;;5089810;28;20028;-48
2023/04/05 02:36:16;;;;;;;12.00;5.90;;;1.60;99.90;;;;;;5088664;28;20532;-50
2023/04/05 02:38:41;;;;;;;13.10;5.80;;;1.50;99.90;;;;;;5105400;28;20063;-49
2023/04/05 02:41:12;;;;;;;13.47;6.40;;;1.50;99.90;;;;;;5089768;28;20035;-50
2023/04/05 02:43:38;;;;;;;13.53;6.93;;;1.50;99.90;;;;;;5093410;28;20028;-49
2023/04/05 02:46:04;;;;;;;15.27;6.50;;;1.50;99.90;;;;;;5092123;28;20396;-50
2023/04/05 02:48:31;;;;;;;15.47;6.80;;;1.60;99.90;;;;;;5091884;28;20032;-48
2023/04/05 02:50:58;;;;;;;13.83;6.87;;;1.50;99.90;;;;;;5091943;28;20027;-48
2023/04/05 02:53:23;;;;;;;14.37;6.90;;;1.50;99.90;;;;;;5093332;28;20036;-49
2023/04/05 02:55:56;;;;;;;17.17;6.67;;;1.50;99.90;;;;;;5092041;28;20561;-47
2023/04/05 02:58:23;;;;;;;15.07;6.13;;;1.50;99.90;;;;;;5093012;28;20477;-47
2023/04/05 03:00:50;;;;;;;12.60;6.17;;;1.40;99.90;;;;;;5074945;28;20460;-48
2023/04/05 03:03:21;;;;;;;17.57;7.00;;;1.40;99.90;;;;;;5091604;28;20024;-52
2023/04/05 03:05:48;;;;;;;19.97;6.67;;;1.40;99.90;;;;;;5091921;28;20090;-48
2023/04/05 03:08:22;;;;;;;13.77;6.87;;;1.40;99.90;;;;;;5091683;28;20051;-51
2023/04/05 03:10:57;;;;;;;15.33;7.10;;;1.40;99.90;;;;;;5091470;28;20062;-50
2023/04/05 03:13:22;;;;;;;19.30;7.07;;;1.40;99.90;;;;;;5091396;28;20055;-51
2023/04/05 03:15:53;;;;;;;14.67;6.97;;;1.40;99.90;;;;;;5093017;28;20024;-53
2023/04/05 03:18:19;;;;;;;15.63;6.83;;;1.30;99.90;;;;;;5108264;28;20127;-48
2023/04/05 03:20:49;;;;;;;16.77;6.97;;;1.30;99.90;;;;;;5091438;28;20020;-47
2023/04/05 03:23:20;;;;;;;14.13;7.40;;;1.20;99.90;;;;;;5092640;28;20035;-48
2023/04/05 03:25:49;;;;;;;15.27;7.18;;;1.20;99.90;;;;;;5091648;28;20081;-50
2023/04/05 03:28:17;;;;;;;20.13;7.77;;;1.10;99.90;;;;;;5091078;28;20036;-48
2023/04/05 03:30:46;;;;;;;17.60;7.88;;;1.10;99.90;;;;;;5091438;28;20039;-51
2023/04/05 03:33:19;;;;;;;14.87;6.53;;;1.10;99.90;;;;;;5092992;28;20377;-49
2023/04/05 03:35:47;;;;;;;18.03;7.30;;;1.10;99.90;;;;;;5091319;28;20035;-52
2023/04/05 03:38:14;;;;;;;17.17;7.53;;;1.00;99.90;;;;;;5091193;28;20075;-53
2023/04/05 03:40:55;;;;;;;16.17;7.00;;;1.00;99.90;;;;;;5092308;28;20035;-51
2023/04/05 03:43:21;;;;;;;14.53;7.07;;;1.00;99.90;;;;;;5092221;28;20249;-48
2023/04/05 03:45:47;;;;;;;12.63;6.77;;;0.90;99.90;;;;;;5107994;28;20035;-52
2023/04/05 03:48:13;;;;;;;18.63;7.33;;;0.90;99.90;;;;;;5090928;28;20028;-50
2023/04/05 03:50:38;;;;;;;15.73;7.00;;;1.00;99.90;;;;;;5092225;28;20545;-53
2023/04/05 03:53:04;;;;;;;15.80;7.03;;;1.00;99.90;;;;;;5092131;28;20035;-49
2023/04/05 03:55:30;;;;;;;15.83;7.33;;;0.90;99.90;;;;;;5090598;28;20034;-52
2023/04/05 03:58:00;;;;;;;18.03;6.53;;;0.90;99.90;;;;;;5090741;28;20431;-48
2023/04/05 04:00:31;;;;;;;15.80;7.50;;;0.90;99.90;;;;;;5090672;28;20020;-49
2023/04/05 04:03:29;;;;;;;22.73;8.20;;;0.90;99.90;;;;;;5082204;28;20029;-49
2023/04/05 04:05:56;;;;;;;15.37;7.43;;;0.90;99.90;;;;;;5090929;28;20438;-52
2023/04/05 04:08:22;;;;;;;15.90;7.03;;;0.90;99.90;;;;;;5090379;28;20524;-52
2023/04/05 04:10:49;;;;;;;15.63;7.03;;;0.80;99.90;;;;;;5090296;28;20105;-49
2023/04/05 04:13:22;;;;;;;19.00;7.90;;;0.80;99.90;;;;;;5090409;28;20040;-48
2023/04/05 04:15:57;;;;;;;14.73;7.00;;;0.80;99.90;;;;;;5090464;28;20036;-48
2023/04/05 04:18:53;;;;;;;17.50;7.57;;;0.80;99.90;;;;;;5107332;28;20038;-51
2023/04/05 04:21:31;;;;;;;14.10;6.93;;;0.80;99.90;;;;;;5090581;28;20043;-53
2023/04/05 04:24:26;;;;;;;19.10;7.37;;;0.80;99.90;;;;;;5067483;28;20383;-47
2023/04/05 04:27:18;;;;;;;19.30;8.37;;;0.80;99.90;;;;;;5071362;28;20032;-50
2023/04/05 04:30:02;;;;;;;17.47;7.03;;;0.70;99.90;;;;;;5091504;28;20122;-50
2023/04/05 04:32:58;;;;;;;18.17;7.17;;;0.70;99.90;;;;;;5090228;28;20035;-51
2023/04/05 04:35:39;;;;;;;18.30;7.83;;;0.60;99.90;;;;;;5091504;28;20116;-48
2023/04/05 04:38:19;;;;;;;15.50;7.13;;;0.50;99.90;;;;;;5089862;28;20028;-51
2023/04/05 04:41:07;;;;;;;18.90;7.55;;;0.50;99.90;;;;;;5091611;28;20058;-52
2023/04/05 04:44:05;;;;;;;16.20;7.53;;;0.50;99.90;;;;;;5056616;28;20029;-52
2023/04/05 04:46:43;;;;;;;16.53;7.57;;;0.50;99.90;;;;;;5091149;28;20020;-50
2023/04/05 04:49:23;;;;;;;18.27;8.10;;;0.50;99.90;;;;;;5091060;28;20030;-49
2023/04/05 04:51:49;;;;;;;14.73;7.20;;;0.40;99.90;;;;;;5090924;28;20028;-50
2023/04/05 04:54:19;;;;;;;16.73;7.78;;;0.40;99.90;;;;;;5089580;28;20507;-50
2023/04/05 04:56:46;;;;;;;18.83;7.50;;;0.40;99.90;;;;;;5090892;28;20085;-47
2023/04/05 04:59:12;;;;;;;17.43;8.37;;;0.40;99.90;;;;;;5090998;28;20081;-51
2023/04/05 05:01:39;;;;;;;17.83;8.13;;;0.40;99.90;;;;;;5090948;28;20036;-51
2023/04/05 05:04:05;;;;;;;19.60;8.70;;;0.50;99.90;;;;;;5090253;28;20024;-50
2023/04/05 05:06:34;;;;;;;17.73;8.35;;;0.50;99.90;;;;;;5089444;28;20512;-48
2023/04/05 05:09:00;;;;;;;21.37;8.07;;;0.40;99.90;;;;;;5090786;28;20028;-47
2023/04/05 05:11:27;;;;;;;19.67;8.50;;;0.30;99.90;;;;;;5089368;28;20081;-48
2023/04/05 05:13:53;;;;;;;22.07;8.20;;;0.30;99.90;;;;;;5090648;28;20102;-47
2023/04/05 05:16:24;;;;;;;15.37;7.80;;;0.40;99.90;;;;;;5089342;28;20092;-47
2023/04/05 05:18:50;;;;;;;20.23;8.50;;;0.40;99.90;;;;;;5090641;28;20480;-48
2023/04/05 05:21:16;;;;;;;21.93;8.57;;;0.40;99.90;;;;;;5090676;28;20551;-49
2023/04/05 05:23:45;;;;;;;17.77;8.27;;;0.40;99.90;;;;;;5089412;28;20028;-48
2023/04/05 05:26:12;;;;;;;16.57;8.03;;;0.40;99.90;;;;;;5090794;28;20032;-52
2023/04/05 05:28:38;;;;;;;17.47;8.53;;;0.40;99.90;;;;;;5090419;28;20028;-50
2023/04/05 05:31:04;;;;;;;21.63;8.73;;;0.50;99.90;;;;;;5090601;28;20032;-52
2023/04/05 05:33:32;;;;;;;21.10;8.17;;;0.50;99.90;;;;;;5089123;28;20036;-50
2023/04/05 05:35:57;;;;;;;17.83;8.57;;;0.60;99.90;;;;;;5090939;28;20028;-49
2023/04/05 05:38:23;;;;;;;18.50;8.10;;;0.60;99.90;;;;;;5090512;28;20036;-50
2023/04/05 05:40:55;;;;;;;17.17;8.27;;;0.60;99.90;;;;;;5090625;28;20027;-48
2023/04/05 05:43:21;;;;;;;18.23;8.03;;;0.70;99.90;;;;;;5090921;28;20460;-52
2023/04/05 05:45:47;;;;;;;19.30;8.63;;;0.80;99.90;;;;;;5090739;28;20074;-48
2023/04/05 05:48:13;;;;;;;19.67;8.13;;;0.80;99.90;;;;;;5090484;28;20399;-48
2023/04/05 05:50:39;;;;;;;18.03;8.60;;;0.80;99.90;;;;;;5090598;28;20038;-50
2023/04/05 05:53:05;;;;;;;20.13;8.93;;;0.90;99.90;;;;;;5090723;28;20054;-49
2023/04/05 05:55:31;;;;;;;22.17;8.40;;;1.00;99.90;;;;;;5089284;28;20038;-51
2023/04/05 05:57:56;;;;;;;20.40;8.97;;;1.00;99.90;;;;;;5090515;28;20032;-49
2023/04/05 06:00:22;;;;;;;20.07;8.73;;;1.10;99.90;;;;;;5090577;28;20024;-48
2023/04/05 06:02:48;;;;;;;19.50;8.90;;;1.20;99.90;;;;;;5090650;28;20028;-49
2023/04/05 06:05:14;;;;;;;20.37;8.93;;;1.20;99.90;;;;;;5090491;28;20028;-49
2023/04/05 06:07:40;;;;;;;18.00;8.23;;;1.30;99.90;;;;;;5090671;28;20042;-47
2023/04/05 06:10:08;;;;;;;18.27;8.13;;;1.40;99.90;;;;;;5090662;28;20032;-48
2023/04/05 06:12:34;;;;;;;16.83;8.13;;;1.50;99.90;;;;;;5090469;28;20035;-50
2023/04/05 06:15:01;;;;;;;25.43;9.07;;;1.60;99.90;;;;;;5090371;28;20074;-51
2023/04/05 06:17:27;;;;;;;16.57;8.60;;;1.70;99.90;;;;;;5093604;28;20211;-49
2023/04/05 06:19:53;;;;;;;21.70;8.57;;;1.90;99.90;;;;;;5094288;28;20063;-50
2023/04/05 06:22:18;;;;;;;17.43;8.97;;;2.30;99.90;;;;;;5094386;28;20048;-52
2023/04/05 06:24:44;;;;;;;17.20;8.40;;;2.70;99.90;;;;;;5094031;28;20563;-50
2023/04/05 06:27:10;;;;;;;19.37;9.03;;;3.30;99.90;;;;;;5093963;28;20035;-51
2023/04/05 06:29:36;;;;;;;18.53;8.50;;;3.90;99.90;;;;;;5094078;28;20043;-49
2023/04/05 06:32:01;;;;;;;17.30;7.87;;;4.40;99.90;;;;;;5094010;28;20062;-53
2023/04/05 06:34:27;;;;;;;15.33;7.77;;;4.70;99.90;;;;;;5093938;28;20028;-51
2023/04/05 06:36:54;;;;;;;16.87;7.97;;;5.20;99.90;;;;;;5093772;28;20488;-52
2023/04/05 06:39:20;;;;;;;18.17;8.00;;;5.90;99.90;;;;;;5093961;28;20059;-49
2023/04/05 06:41:46;;;;;;;16.27;7.90;;;6.40;99.90;;;;;;5093831;28;20055;-51
2023/04/05 06:44:11;;;;;;;15.77;7.37;;;7.10;99.90;;;;;;5093592;28;20031;-50
2023/04/05 06:46:37;;;;;;;15.40;7.77;;;7.50;99.90;;;;;;5093628;28;20024;-49
2023/04/05 06:49:03;;;;;;;15.93;7.43;;;8.00;99.90;;;;;;5093753;28;20480;-53
2023/04/05 06:51:28;;;;;;;13.40;6.30;;;8.10;99.90;;;;;;5093779;28;20115;-54
2023/04/05 06:53:54;;;;;;;11.13;6.47;;;7.80;97.60;;;;;;5093539;28;20122;-50
2023/04/05 06:56:20;;;;;;;9.60;6.03;;;8.00;98.10;;;;;;5093544;28;20035;-52
2023/04/05 06:58:46;;;;;;;10.77;6.10;;;8.10;96.70;;;;;;5093524;28;20408;-48
2023/04/05 07:01:12;;;;;;;13.20;6.30;;;7.90;96.50;;;;;;5093605;28;20028;-48
2023/04/05 07:03:38;;;;;;;9.23;5.60;;;8.20;96.50;;;;;;5093406;28;20028;-49
2023/04/05 07:06:05;;;;;;;13.70;6.23;;;8.00;96.20;;;;;;5093585;28;20107;-49
2023/04/05 07:08:31;;;;;;;12.67;6.60;;;8.10;95.80;;;;;;5093027;28;20085;-52
2023/04/05 07:10:58;;;;;;;11.33;6.23;;;8.30;96.20;;;;;;5093135;28;20063;-49
2023/04/05 07:13:24;;;;;;;10.77;5.50;;;8.60;94.60;;;;;;5092930;28;20031;-51
2023/04/05 07:15:51;;;;;;;12.47;6.00;;;9.00;92.60;;;;;;5093172;28;20499;-49
2023/04/05 07:18:17;;;;;;;9.60;5.40;;;8.80;95.00;;;;;;5092894;28;20062;-49
2023/04/05 07:20:52;;;;;;;9.60;4.60;;;9.10;91.20;;;;;;5093181;28;20396;-49
2023/04/05 07:23:18;;;;;;;9.83;4.63;;;9.30;89.70;;;;;;5093005;28;20028;-50
2023/04/05 07:25:44;;;;;;;10.23;5.17;;;9.20;89.00;;;;;;5092901;28;20024;-46
2023/04/05 07:28:10;;;;;;;10.87;5.27;;;9.20;88.70;;;;;;5092324;28;20107;-48
2023/04/05 07:30:36;;;;;;;8.87;4.37;;;9.50;85.50;;;;;;5092777;28;20551;-47
2023/04/05 07:33:02;;;;;;;7.57;4.63;;;9.40;83.80;;;;;;5092938;28;20115;-50
2023/04/05 07:35:28;;;;;;;7.90;4.13;;;9.00;87.20;;;;;;5092695;28;20067;-47
2023/04/05 07:37:54;;;;;;;6.83;4.27;;;9.00;87.00;;;;;;5092505;28;20082;-49
2023/04/05 07:40:20;;;;;;;8.63;3.97;;;9.40;84.10;;;;;;5092675;28;20396;-48
2023/04/05 07:42:46;;;;;;;8.23;4.50;;;9.50;84.40;;;;;;5092801;28;20034;-49
2023/04/05 07:45:11;;;;;;;9.70;4.50;;;10.00;85.00;;;;;;5092628;28;20035;-49
2023/04/05 07:47:37;;;;;;;7.53;4.30;;;10.60;79.20;;;;;;5092758;28;20032;-47
2023/04/05 07:50:03;;;;;;;8.63;4.55;;;11.00;79.50;;;;;;5092647;28;20032;-51
2023/04/05 07:52:29;;;;;;;9.70;4.38;;;11.60;78.20;;;;;;5092608;28;20507;-47
2023/04/05 07:54:55;;;;;;;10.88;4.80;;;12.00;76.80;;;;;;5092330;28;20032;-47
2023/04/05 07:57:21;;;;;;;9.68;4.63;;;12.50;71.00;;;;;;5092189;28;20052;-49
2023/04/05 07:59:49;;;;;;;9.43;4.50;;;12.80;70.00;;;;;;5092420;28;20538;-49
2023/04/05 08:02:16;;;;;;;11.25;4.88;;;12.50;70.20;;;;;;5092530;28;20085;-50
2023/04/05 08:04:41;;;;;;;6.85;4.68;;;12.00;69.90;;;;;;5092317;28;20040;-48
2023/04/05 08:07:07;;;;;;;7.68;4.65;;;12.00;69.90;;;;;;5092213;28;20031;-48
2023/04/05 08:09:34;;;;;;;7.10;4.60;;;11.90;70.50;;;;;;5092256;28;20028;-47
2023/04/05 08:12:01;;;;;;;8.38;4.65;;;11.80;70.90;;;;;;5092210;28;20036;-46
2023/04/05 08:14:27;;;;;;;6.88;4.47;;;11.70;69.00;;;;;;5092127;28;20024;-48
2023/04/05 08:16:53;;;;;;;7.95;4.47;;;11.30;71.30;;;;;;5092047;28;20086;-53
2023/04/05 08:19:19;;;;;;;9.13;4.82;;;11.50;72.40;;;;;;5092241;28;20031;-51
2023/04/05 08:21:45;;;;;;;7.60;4.63;;;11.40;74.20;;;;;;5092079;28;20032;-49
2023/04/05 08:24:10;;;;;;;9.73;4.70;;;11.30;71.70;;;;;;5091854;28;20393;-57
2023/04/05 08:26:36;;;;;;;10.40;4.57;;;11.30;72.30;;;;;;5091842;28;20404;-52
2023/04/05 08:29:02;;;;;;;7.35;4.68;;;10.70;73.00;;;;;;5091938;28;20024;-51
2023/04/05 08:31:28;;;;;;;9.65;4.78;;;10.80;74.20;;;;;;5092011;28;20533;-49
2023/04/05 08:33:53;;;;;;;8.45;4.97;;;10.60;72.60;;;;;;5091658;28;20032;-48
2023/04/05 08:36:19;;;;;;;10.35;5.20;;;10.40;74.50;;;;;;5091756;28;20158;-49
2023/04/05 08:38:45;;;;;;;8.52;4.65;;;10.30;73.90;;;;;;5090585;28;20049;-49
2023/04/05 08:41:20;;;;;;;7.55;4.88;;;10.60;75.90;;;;;;5090407;28;20024;-48
2023/04/05 08:43:58;;;;;;;8.07;4.63;;;10.90;73.60;;;;;;5091440;28;20117;-51
2023/04/05 08:46:25;;;;;;;9.00;5.05;;;11.20;75.20;;;;;;5091470;28;20077;-49
2023/04/05 08:48:51;;;;;;;6.93;4.60;;;11.00;72.80;;;;;;5091506;28;20032;-51
2023/04/05 08:51:19;;;;;;;8.27;5.38;;;10.80;75.80;;;;;;5091418;28;20032;-49
2023/04/05 08:53:45;;;;;;;8.48;5.00;;;11.00;75.10;;;;;;5091283;28;20103;-48
2023/04/05 08:56:14;;;;;;;8.95;5.07;;;11.00;75.10;;;;;;5091552;28;20052;-51
2023/04/05 08:58:45;;;;;;;8.07;4.72;;;11.10;74.40;;;;;;5091139;28;20120;-53
2023/04/05 09:01:11;;;;;;;11.57;5.50;;;11.20;72.80;;;;;;5091341;28;20085;-55
2023/04/05 09:03:40;;;;;;;7.97;4.67;;;11.00;73.30;;;;;;5091122;28;20015;-51
2023/04/05 09:06:08;;;;;;;7.43;4.73;;;10.70;74.80;;;;;;5091327;28;20028;-49
2023/04/05 09:08:33;;;;;;;10.73;5.23;;;10.50;71.50;;;;;;5090989;28;20561;-50
2023/04/05 09:10:59;;;;;;;8.77;5.27;;;10.50;75.50;;;;;;5091018;28;20036;-52
2023/04/05 09:13:25;;;;;;;9.43;5.30;;;10.40;73.60;;;;;;5091049;28;20031;-47
2023/04/05 09:15:51;;;;;;;9.97;5.50;;;10.40;74.90;;;;;;5091635;28;20040;-49
2023/04/05 09:18:17;;;;;;;13.27;5.57;;;10.40;72.80;;;;;;5090886;28;20464;-48
2023/04/05 09:20:43;;;;;;;9.03;4.70;;;10.10;74.90;;;;;;5091389;28;20032;-48
2023/04/05 09:23:08;;;;;;;9.13;5.30;;;10.10;74.50;;;;;;5091264;28;20028;-46
2023/04/05 09:25:37;;;;;;;10.57;5.67;;;10.00;74.70;;;;;;5090890;28;20392;-49
2023/04/05 09:28:04;;;;;;;11.80;5.35;;;10.00;77.00;;;;;;5090867;28;20077;-50
2023/04/05 09:30:31;;;;;;;10.13;5.50;;;10.30;78.30;;;;;;5090867;28;20031;-50
2023/04/05 09:32:57;;;;;;;9.20;5.43;;;10.30;74.70;;;;;;5090900;28;20392;-47
2023/04/05 09:35:27;;;;;;;9.80;5.17;;;10.40;72.50;;;;;;5091060;28;20054;-47
2023/04/05 09:37:57;;;;;;;;;;;10.60;73.30;;;;;;5091384;28;20111;-51
2023/04/05 09:40:43;;;;;;;9.37;5.50;;;10.70;72.60;;;;;;5089603;28;19914;-48
2023/04/05 09:43:33;;;;;;;8.93;5.13;;;10.90;73.50;;;;;;5090971;28;20491;-49
2023/04/05 09:45:59;;;;;;;9.68;5.63;;;11.20;74.00;;;;;;5090964;28;20165;-50
2023/04/05 09:48:48;;;;;;;10.17;5.47;;;11.40;71.10;;;;;;5090663;28;20101;-49
2023/04/05 09:51:15;;;;;;;11.40;5.45;;;11.20;70.50;;;;;;5094214;28;20077;-48
2023/04/05 09:54:01;;;;;;;11.30;5.83;;;11.60;73.50;;;;;;5094622;28;20028;-50
2023/04/05 09:56:29;;;;;;;8.90;5.70;;;12.40;69.20;;;;;;5094826;28;20028;-52
2023/04/05 09:59:06;;;;;;;10.82;5.90;;;12.60;71.10;;;;;;5094965;28;20388;-52
2023/04/05 10:01:32;;;;;;;8.82;5.70;;;13.00;65.40;;;;;;5094778;28;20032;-50
2023/04/05 10:03:59;;;;;;;8.90;5.65;;;13.50;67.00;;;;;;5094500;28;20065;-49
2023/04/05 10:06:41;;;;;;;11.52;5.38;;;14.20;65.40;;;;;;5094418;28;20035;-51
2023/04/05 10:09:10;;;;;;;8.85;5.43;;;14.50;61.10;;;;;;5094691;28;20024;-50
2023/04/05 10:11:37;;;;;;;9.85;5.68;;;14.10;61.50;;;;;;5094625;28;20043;-48
2023/04/05 10:14:05;;;;;;;11.38;5.80;;;14.20;64.20;;;;;;5094479;28;20036;-51
2023/04/05 10:16:35;;;;;;;10.88;5.65;;;14.80;62.60;;;;;;5094341;28;20119;-52
2023/04/05 10:19:02;;;;;;;8.30;5.78;;;14.60;62.40;;;;;;5094299;28;20032;-51
2023/04/05 10:21:32;;;;;;;11.55;5.80;;;15.50;59.50;;;;;;5094551;28;20024;-49
2023/04/05 10:24:17;;;;;;;8.75;5.85;;;14.80;57.80;;;;;;5094225;28;20103;-51
2023/04/05 10:27:04;;;;;;;10.52;6.25;;;15.70;57.90;;;;;;5094163;28;20027;-52
2023/04/05 10:30:02;;;;;;;9.52;5.78;;;16.00;54.50;;;;;;5092999;28;20116;-52
2023/04/05 10:32:33;;;;;;;9.10;5.55;;;15.70;58.00;;;;;;5091063;28;20101;-51
2023/04/05 10:35:10;;;;;;;10.73;6.00;;;16.10;55.50;;;;;;5093956;28;20024;-51
2023/04/05 10:38:16;;;;;;;11.52;6.00;;;15.40;56.70;;;;;;5093746;28;20028;-52
2023/04/05 10:40:46;;;;;;;9.88;5.80;;;16.20;58.10;;;;;;5043982;28;20395;-51
2023/04/05 10:43:20;;;;;;;8.38;5.35;;;17.00;53.00;;;;;;5094048;28;20042;-52
2023/04/05 10:45:48;;;;;;;10.70;5.78;;;18.00;51.90;;;;;;5093932;28;20032;-49
2023/04/05 10:48:25;;;;;;;8.73;5.60;;;18.50;51.30;;;;;;5093731;28;20036;-53
2023/04/05 10:50:51;;;;;;;8.45;5.72;;;19.20;48.50;;;;;;5093730;28;20036;-52
2023/04/05 10:53:19;;;;;;;9.00;5.93;;;17.10;47.90;;;;;;5093853;28;20031;-52
2023/04/05 10:55:46;;;;;;;10.35;6.07;;;16.40;51.00;;;;;;5093719;28;20028;-49
2023/04/05 10:58:14;;;;;;;10.60;5.90;;;17.10;49.50;;;;;;5093407;28;20040;-53
2023/04/05 11:00:40;;;;;;;9.07;5.23;;;17.60;49.60;;;;;;5093557;28;20085;-53
2023/04/05 11:03:06;;;;;;;7.53;5.40;;;18.30;48.30;;;;;;5092665;28;20103;-51
2023/04/05 11:05:36;;;;;;;10.25;5.82;;;18.50;48.20;;;;;;5093406;28;20127;-48
2023/04/05 11:08:04;;;;;;;11.00;6.78;;;18.30;49.30;;;;;;5093245;28;20063;-49
2023/04/05 11:10:33;;;;;;;13.35;6.60;;;17.40;47.80;;;;;;5093265;28;20036;-51
2023/04/05 11:12:59;;;;;;;10.88;5.78;;;17.20;47.30;;;;;;5093306;28;20036;-51
2023/04/05 11:15:27;;;;;;;11.98;6.10;;;17.70;48.20;;;;;;5093511;28;20112;-50
2023/04/05 11:18:07;;;;;;;12.68;6.03;;;17.70;47.20;;;;;;5092959;28;20054;-50
2023/04/05 11:20:55;;;;;;;9.90;5.75;;;16.40;47.30;;;;;;5093207;28;20073;-49
2023/04/05 11:23:23;;;;;;;11.63;6.07;;;17.00;49.30;;;;;;5093065;28;20038;-47
2023/04/05 11:26:05;;;;;;;9.43;5.83;;;17.50;47.30;;;;;;5093201;28;20471;-51
2023/04/05 11:28:38;;;;;;;9.60;5.88;;;17.50;46.50;;;;;;5093003;28;20436;-51
2023/04/05 11:31:17;;;;;;;8.73;5.63;;;17.80;46.60;;;;;;5093044;28;20036;-48
2023/04/05 11:33:43;;;;;;;9.32;5.55;;;17.30;47.80;;;;;;5092845;28;20515;-48
2023/04/05 11:36:09;;;;;;;8.88;6.32;;;17.20;45.70;;;;;;5092896;28;20059;-49
2023/04/05 11:38:36;;;;;;;8.60;5.97;;;16.60;46.20;;;;;;5092765;28;20423;-52
2023/04/05 11:41:16;;;;;;;9.27;5.90;;;16.40;45.00;;;;;;5092791;28;20027;-50
2023/04/05 11:43:43;;;;;;;11.45;6.00;;;15.70;46.60;;;;;;5092702;28;20024;-53
2023/04/05 11:46:09;;;;;;;11.20;5.90;;;15.90;46.60;;;;;;5092787;28;20121;-51
2023/04/05 11:48:35;;;;;;;11.18;6.63;;;16.10;47.40;;;;;;5092801;28;20032;-47
2023/04/05 11:51:08;;;;;;;11.65;6.47;;;16.20;45.80;;;;;;5092750;28;20401;-52
2023/04/05 11:53:34;;;;;;;10.73;5.75;;;16.30;44.60;;;;;;5091242;28;20036;-50
2023/04/05 11:56:08;;;;;;;10.77;5.95;;;16.50;48.90;;;;;;5092556;28;20089;-51
2023/04/05 11:58:33;;;;;;;11.30;5.95;;;17.10;47.50;;;;;;5092153;28;20028;-52
2023/04/05 12:01:05;;;;;;;13.80;6.72;;;17.10;46.10;;;;;;5092255;28;20032;-51
2023/04/05 12:03:32;;;;;;;11.02;6.32;;;17.00;47.00;;;;;;5092216;28;20297;-52
2023/04/05 12:06:00;;;;;;;11.10;6.20;;;17.40;48.20;;;;;;5092301;28;20496;-51
2023/04/05 12:08:49;;;;;;;11.37;6.17;;;17.60;47.50;;;;;;5092370;28;20081;-48
2023/04/05 12:11:25;;;;;;;16.70;6.25;;;17.20;49.40;;;;;;5091905;28;20042;-49
2023/04/05 12:13:58;;;;;;;14.63;6.82;;;16.80;49.40;;;;;;5092261;28;20127;-51
2023/04/05 12:16:24;;;;;;;11.43;6.82;;;16.30;48.70;;;;;;5091961;28;20494;-52
2023/04/05 12:18:55;;;;;;;11.48;6.55;;;15.90;49.30;;;;;;5091995;28;20507;-51
2023/04/05 12:21:21;;;;;;;11.20;6.63;;;15.90;50.60;;;;;;5092088;28;20106;-48
2023/04/05 12:23:49;;;;;;;11.25;6.75;;;15.80;53.70;;;;;;5091807;28;20057;-49
2023/04/05 12:26:15;;;;;;;11.82;7.18;;;15.70;48.60;;;;;;5092196;28;20430;-49
2023/04/05 12:28:50;;;;;;;13.05;7.07;;;15.50;51.10;;;;;;5091771;28;20031;-48
2023/04/05 12:31:16;;;;;;;14.02;6.15;;;15.10;49.30;;;;;;5091963;28;20445;-47
2023/04/05 12:33:42;;;;;;;14.15;6.97;;;15.10;49.30;;;;;;5091563;28;20063;-47
2023/04/05 12:36:09;;;;;;;13.30;6.65;;;15.00;49.90;;;;;;5091711;28;20024;-48
2023/04/05 12:38:37;;;;;;;11.23;7.00;;;14.80;49.10;;;;;;5091303;28;20028;-50
2023/04/05 12:41:03;;;;;;;18.23;7.37;;;14.70;48.90;;;;;;5091763;28;20396;-49
2023/04/05 12:43:42;;;;;;;12.77;6.93;;;14.90;50.00;;;;;;5091376;28;20418;-50
2023/04/05 12:46:15;;;;;;;12.60;7.00;;;14.80;50.50;;;;;;5091620;28;20028;-49
2023/04/05 12:48:41;;;;;;;11.63;7.30;;;14.80;50.30;;;;;;5091149;28;20039;-52
2023/04/05 12:51:15;;;;;;;13.65;7.43;;;14.90;52.50;;;;;;5091133;28;20115;-48
2023/04/05 12:53:49;;;;;;;15.02;8.07;;;14.90;49.10;;;;;;5091199;28;20064;-50
2023/04/05 12:56:15;;;;;;;16.30;7.28;;;14.80;50.60;;;;;;5091211;28;20036;-52
2023/04/05 12:58:41;;;;;;;15.95;7.35;;;14.40;48.80;;;;;;5090942;28;20032;-53